Airfield :
LOGIN :

Register | Disclaimer

   EN    FR    IT 

 










Legend :    VFR   Marginal VFR   IFR   Intensive IFR   Very Intensive IFR
Visi :
Ceiling :
>= 8 km
>= 3000ft
5 to 8 km
1000 to 3000 ft
1500m to 5 km
500 to 1000 ft
800 to 1500m
200 to 500 ft
< 800m
< 200 ft
Symbols :   Thunderstorms  Fog  Heavy snow  Heavy precipitations  Wind > 20 kt
SIGMETs :     Misc.  Thunderstorms  Icing  Turbulence  Mountain Waves  Volcanic Ashes







- Airport Elevation : 187 ft


LPMR - Monte Real Air Base

CURRENT METAR :
  • 190400Z 18002KT 8000 BKN015 10/07 Q1014

EXPIRED METARs :
  • 190300Z 16003KT 5000 BR FEW014 10/10 Q1014
  • 190200Z 20003KT 9999 FEW014 10/09 Q1014

TAF AMD TAF LPMR
Valid from the 19 at 00:00 until the 20 at 00:00 UTC


190014Z 1900/1924 VRB02KT 9999 SCT012
PROB30
TEMPO 1901/1906 4000 BR SCT005 BKN008
BECMG 1906/1909 34008KT SCT010
TEMPO 1908/1916 5000 -RADZ BR SCT005 BKN012
PROB30
TEMPO 1911/1914 VRB12G22KT 3000 SHRA SCT020 FEW025CB
BECMG 1912/1915 08008KT
No reported NOTAMs for that airfield.



MET'MAP, your aeronautical weather chart ! - Copyright ORBIFLY December 2007 - Disclaimer

ORBIFLY MET'MAP TEAM :

Programming & Development : Alexandra Zaïnal
Concept & Development : Baudouin d'Aumeries
Co-Development & Prog : Marc-Olivier Méhu
Technical & hardware support : Manuel Goepfert

Contact : metmap@orbifly.com




SOURCES & CREDITS :

   NOAA